Accueil
METAR-TAF:

METAR-TAF

Aéroports :

Andora, Italie

Capo Mele

latitude: 43-57N, longitude: 008-10E, altitude: 220 m

Observation

Le bulletin a été fait il y a 57 minutes, à 09:55 UTC
Vent 31 kt de sud-ouest avec des rafales jusqu'à 49 kt
Température 21°C
Humidité 78%
Pression 1001 hPa
Visibilité 10 km ou plus
Quelques nuages à une hauteur de 2600 ft

METAR: LIMU 290955Z 23031G49KT 9999 FEW026 21/17 Q1001 RMK FEW QUK 5 QUL 1 S VIS MAR 35 KM VIS MIN 9999

Heure: 12:52 (10:52 UTC)


TAF: absent

Observations et prévisions météorologiques de plus de 4000 aéroports (messages METAR et TAF).

Les stations disponibles sont représentées par des disques jaunes et rouges sur la carte.

Passer la souris dessus pour voir le nom de la station.

Cliquer dessus pour voir les observations et prévisions météorologiques.

Pour changer de carte: cliquez sur les boutons verts avec une croix noire pour zoomer, sur le bouton vert avec un tiret pour effectuer un zoom arrière, ou sur les flèches vertes pour les cartes adjacentes.


METAR-TAF: